Time;durP1;ratioP1;P1;durP2;ratioP2;P2;SDS_P1;SDS_P2;PMS_P1;PMS_P2;Temp;Humidity;BMP_temperature;BMP_pressure;BME280_temperature;BME280_humidity;BME280_pressure;Samples;Min_cycle;Max_cycle;Signal;HPM_P1;HPM_P2
2023/05/28 00:00:28;;;;;;;12.32;7.50;;;;;;;;;;4932271;28;20039;-83
2023/05/28 00:03:03;;;;;;;14.93;8.00;;;;;;;;;;4969714;28;20035;-81
2023/05/28 00:05:32;;;;;;;15.48;8.00;;;;;;;;;;4975976;28;20026;-83
2023/05/28 00:08:18;;;;;;;14.60;7.68;;;;;;;;;;4951138;29;20047;-82
2023/05/28 00:10:46;;;;;;;14.27;7.30;;;;;;;;;;4955360;28;20031;-83
2023/05/28 00:13:36;;;;;;;16.23;7.15;;;;;;;;;;4942270;28;20067;-83
2023/05/28 00:16:12;;;;;;;14.85;8.20;;;;;;;;;;4940021;28;20043;-82
2023/05/28 00:18:51;;;;;;;24.27;9.25;;;;;;;;;;4956412;28;20039;-82
2023/05/28 00:21:26;;;;;;;15.63;8.15;;;;;;;;;;4940061;28;20042;-83
2023/05/28 00:23:54;;;;;;;14.85;7.22;;;;;;;;;;4956222;28;20490;-83
2023/05/28 00:26:30;;;;;;;11.93;6.78;;;;;;;;;;4940964;28;20495;-83
2023/05/28 00:29:00;;;;;;;13.40;6.63;;;;;;;;;;4953463;28;20034;-84
2023/05/28 00:31:33;;;;;;;14.88;7.13;;;;;;;;;;4955474;28;20024;-83
2023/05/28 00:34:04;;;;;;;;;;;;;;;;;;4941333;28;20031;-83
2023/05/28 00:36:43;;;;;;;13.02;6.28;;;;;;;;;;4941054;28;19910;-82
2023/05/28 00:39:32;;;;;;;14.65;6.88;;;;;;;;;;4931876;28;20031;-83
2023/05/28 00:42:13;;;;;;;15.43;6.38;;;;;;;;;;4940893;28;20027;-83
2023/05/28 00:45:05;;;;;;;10.90;5.55;;;;;;;;;;4924233;28;20077;-83
2023/05/28 00:47:58;;;;;;;11.90;5.70;;;;;;;;;;4951888;28;20020;-82
2023/05/28 00:50:25;;;;;;;;;;;;;;;;;;4949582;28;20109;-84
2023/05/28 00:52:51;;;;;;;14.45;5.78;;;;;;;;;;4962366;28;19911;-83
2023/05/28 00:55:17;;;;;;;13.20;5.68;;;;;;;;;;4972505;28;20044;-84
2023/05/28 00:57:43;;;;;;;11.40;5.75;;;;;;;;;;4943431;28;20552;-83
2023/05/28 01:00:09;;;;;;;10.80;5.10;;;;;;;;;;4968011;28;20400;-85
2023/05/28 01:02:35;;;;;;;11.43;5.57;;;;;;;;;;4967381;28;20041;-83
2023/05/28 01:05:04;;;;;;;11.85;6.18;;;;;;;;;;4960936;28;20041;-82
2023/05/28 01:07:30;;;;;;;12.85;5.93;;;;;;;;;;4972337;28;20500;-82
2023/05/28 01:09:55;;;;;;;13.23;5.68;;;;;;;;;;4975607;28;20073;-84
2023/05/28 01:12:21;;;;;;;10.02;6.00;;;;;;;;;;4974518;28;20026;-84
2023/05/28 01:14:47;;;;;;;13.35;5.88;;;;;;;;;;4963009;28;20488;-83
2023/05/28 01:17:16;;;;;;;13.32;6.25;;;;;;;;;;4973842;28;20552;-83
2023/05/28 01:19:42;;;;;;;12.50;6.30;;;;;;;;;;4942875;28;20103;-84
2023/05/28 01:22:12;;;;;;;10.85;5.82;;;;;;;;;;4966424;28;20123;-82
2023/05/28 01:24:41;;;;;;;13.38;5.97;;;;;;;;;;4968615;28;20031;-83
2023/05/28 01:27:07;;;;;;;13.07;5.78;;;;;;;;;;4960467;28;20042;-82
2023/05/28 01:29:32;;;;;;;12.60;5.60;;;;;;;;;;4973143;28;20170;-82
2023/05/28 01:31:58;;;;;;;13.52;5.95;;;;;;;;;;4945997;28;20035;-82
2023/05/28 01:34:24;;;;;;;10.70;5.30;;;;;;;;;;4958763;28;20409;-83
2023/05/28 01:36:56;;;;;;;11.75;5.50;;;;;;;;;;4950353;28;20058;-81
2023/05/28 01:39:24;;;;;;;12.02;5.13;;;;;;;;;;4963218;28;20034;-81
2023/05/28 01:41:50;;;;;;;10.98;6.03;;;;;;;;;;4975187;28;20031;-80
2023/05/28 01:44:18;;;;;;;10.43;5.28;;;;;;;;;;4975592;28;20045;-79
2023/05/28 01:46:45;;;;;;;12.10;5.90;;;;;;;;;;4977304;28;20027;-80
2023/05/28 01:49:11;;;;;;;10.43;4.88;;;;;;;;;;4979115;28;20044;-83
2023/05/28 01:51:36;;;;;;;10.70;5.50;;;;;;;;;;4982496;28;20255;-82
2023/05/28 01:54:02;;;;;;;10.23;4.95;;;;;;;;;;4973231;28;20047;-82
2023/05/28 01:56:30;;;;;;;12.93;6.13;;;;;;;;;;4989598;28;20097;-82
2023/05/28 01:58:56;;;;;;;10.35;5.18;;;;;;;;;;4976866;28;20038;-83
2023/05/28 02:01:27;;;;;;;10.80;5.03;;;;;;;;;;4976793;29;20027;-84
2023/05/28 02:03:54;;;;;;;11.40;5.47;;;;;;;;;;4969174;28;20050;-83
2023/05/28 02:06:21;;;;;;;12.95;5.78;;;;;;;;;;4973861;28;20029;-82
2023/05/28 02:08:46;;;;;;;10.60;5.68;;;;;;;;;;4964505;29;20054;-84
2023/05/28 02:11:12;;;;;;;11.75;5.70;;;;;;;;;;4965403;28;20031;-84
2023/05/28 02:13:39;;;;;;;11.85;5.40;;;;;;;;;;4954294;29;20411;-84
2023/05/28 02:16:05;;;;;;;10.55;5.43;;;;;;;;;;4938861;28;20039;-83
2023/05/28 02:18:32;;;;;;;12.13;5.40;;;;;;;;;;4938979;29;20069;-84
2023/05/28 02:20:57;;;;;;;12.27;5.38;;;;;;;;;;4954687;29;20038;-84
2023/05/28 02:23:23;;;;;;;13.98;5.90;;;;;;;;;;4939047;29;20031;-82
2023/05/28 02:25:48;;;;;;;12.68;5.97;;;;;;;;;;4938483;28;20134;-83
2023/05/28 02:28:14;;;;;;;11.95;5.85;;;;;;;;;;4955664;29;20066;-81
2023/05/28 02:30:40;;;;;;;11.98;6.03;;;;;;;;;;4955441;29;20045;-83
2023/05/28 02:33:05;;;;;;;13.85;6.93;;;;;;;;;;4922729;29;20039;-82
2023/05/28 02:35:31;;;;;;;13.15;6.20;;;;;;;;;;4938753;29;20027;-82
2023/05/28 02:37:56;;;;;;;12.35;6.18;;;;;;;;;;4907685;29;20043;-82
2023/05/28 02:40:22;;;;;;;12.25;5.78;;;;;;;;;;4954974;29;20038;-82
2023/05/28 02:42:48;;;;;;;12.65;5.88;;;;;;;;;;4938485;29;20042;-82
2023/05/28 02:45:13;;;;;;;15.30;6.63;;;;;;;;;;4938612;29;20491;-82
2023/05/28 02:47:39;;;;;;;13.52;6.63;;;;;;;;;;4957603;28;20546;-83
2023/05/28 02:50:05;;;;;;;14.45;6.25;;;;;;;;;;4954751;28;20054;-83
2023/05/28 02:52:43;;;;;;;15.05;6.07;;;;;;;;;;4943420;29;20070;-84
2023/05/28 02:55:09;;;;;;;12.20;5.97;;;;;;;;;;4967257;28;20077;-83
2023/05/28 02:57:35;;;;;;;14.38;7.18;;;;;;;;;;4940931;29;20451;-82
2023/05/28 03:00:04;;;;;;;13.90;6.28;;;;;;;;;;4953646;28;20035;-82
2023/05/28 03:02:30;;;;;;;10.85;5.35;;;;;;;;;;4953375;29;20031;-83
2023/05/28 03:04:56;;;;;;;12.32;5.93;;;;;;;;;;4955458;28;20035;-82
2023/05/28 03:07:23;;;;;;;16.83;6.88;;;;;;;;;;4964044;28;20088;-84
2023/05/28 03:09:49;;;;;;;14.65;5.53;;;;;;;;;;4957731;28;20035;-83
2023/05/28 03:12:16;;;;;;;12.00;5.95;;;;;;;;;;4971935;28;20030;-82
2023/05/28 03:14:41;;;;;;;11.40;5.47;;;;;;;;;;4968349;28;20030;-83
2023/05/28 03:17:08;;;;;;;17.13;6.45;;;;;;;;;;4954034;28;20031;-82
2023/05/28 03:19:33;;;;;;;13.95;5.57;;;;;;;;;;4937635;28;20049;-83
2023/05/28 03:22:00;;;;;;;16.55;6.65;;;;;;;;;;4956974;28;20026;-84
2023/05/28 03:24:32;;;;;;;13.23;5.13;;;;;;;;;;4944078;28;20037;-84
2023/05/28 03:26:59;;;;;;;14.65;6.50;;;;;;;;;;4956210;28;20109;-84
2023/05/28 03:29:25;;;;;;;14.27;6.40;;;;;;;;;;4955983;28;20039;-83
2023/05/28 03:31:58;;;;;;;15.50;5.93;;;;;;;;;;4955970;28;20034;-82
2023/05/28 03:34:25;;;;;;;14.68;6.07;;;;;;;;;;4963725;28;20046;-82
2023/05/28 03:36:51;;;;;;;11.90;5.88;;;;;;;;;;4958840;28;20046;-84
2023/05/28 03:39:16;;;;;;;12.52;5.57;;;;;;;;;;4956121;28;20027;-85
2023/05/28 03:41:44;;;;;;;12.88;6.22;;;;;;;;;;4956185;28;20109;-85
2023/05/28 03:44:10;;;;;;;10.70;5.07;;;;;;;;;;4956119;28;20442;-82
2023/05/28 03:46:36;;;;;;;10.85;5.82;;;;;;;;;;4939385;28;20031;-85
2023/05/28 03:49:01;;;;;;;15.93;6.03;;;;;;;;;;4952844;28;20543;-83
2023/05/28 03:51:28;;;;;;;13.73;6.15;;;;;;;;;;4965220;28;20031;-85
2023/05/28 03:53:53;;;;;;;12.25;5.80;;;;;;;;;;4956020;28;20027;-84
2023/05/28 03:56:19;;;;;;;11.18;5.90;;;;;;;;;;4934481;28;20031;-85
2023/05/28 03:58:47;;;;;;;12.57;5.72;;;;;;;;;;4955870;28;20046;-83
2023/05/28 04:01:12;;;;;;;10.20;5.38;;;;;;;;;;4925702;28;20027;-84
2023/05/28 04:03:38;;;;;;;14.27;6.03;;;;;;;;;;4936393;29;20456;-84
2023/05/28 04:06:04;;;;;;;12.75;6.28;;;;;;;;;;4948242;28;20035;-84
2023/05/28 04:08:30;;;;;;;12.05;5.60;;;;;;;;;;4951890;28;20034;-84
2023/05/28 04:10:55;;;;;;;11.73;5.68;;;;;;;;;;4956088;28;20058;-85
2023/05/28 04:13:22;;;;;;;10.13;5.68;;;;;;;;;;4952932;29;20441;-85
2023/05/28 04:15:47;;;;;;;16.55;5.95;;;;;;;;;;4946426;28;20045;-85
2023/05/28 04:18:13;;;;;;;12.23;5.13;;;;;;;;;;4952966;29;20035;-84
2023/05/28 04:20:41;;;;;;;11.18;5.30;;;;;;;;;;4968727;28;20056;-82
2023/05/28 04:23:07;;;;;;;10.90;5.55;;;;;;;;;;4962243;28;20500;-83
2023/05/28 04:25:33;;;;;;;14.20;6.22;;;;;;;;;;4982369;28;20027;-84
2023/05/28 04:28:00;;;;;;;13.88;5.43;;;;;;;;;;4950798;28;20033;-82
2023/05/28 04:30:26;;;;;;;11.98;5.28;;;;;;;;;;4993042;28;20039;-84
2023/05/28 04:32:52;;;;;;;15.35;5.85;;;;;;;;;;4991245;28;20035;-82
2023/05/28 04:35:17;;;;;;;11.27;5.05;;;;;;;;;;4973437;28;20043;-85
2023/05/28 04:37:44;;;;;;;10.30;5.22;;;;;;;;;;4947288;28;20058;-83
2023/05/28 04:40:13;;;;;;;10.40;5.30;;;;;;;;;;4980370;28;20089;-81
2023/05/28 04:42:40;;;;;;;;;;;;;;;;;;4962012;28;20105;-82
2023/05/28 04:45:09;;;;;;;8.93;4.45;;;;;;;;;;4924639;29;19910;-82
2023/05/28 04:47:36;;;;;;;12.25;5.75;;;;;;;;;;4942361;29;20027;-82
2023/05/28 04:50:04;;;;;;;14.13;5.63;;;;;;;;;;4958144;29;20090;-81
2023/05/28 04:52:35;;;;;;;18.17;6.15;;;;;;;;;;4961865;28;20047;-79
2023/05/28 04:55:01;;;;;;;12.85;5.78;;;;;;;;;;4976951;28;20120;-82
2023/05/28 04:57:28;;;;;;;14.25;6.13;;;;;;;;;;4987203;28;20058;-79
2023/05/28 04:59:53;;;;;;;11.32;5.35;;;;;;;;;;4954612;28;20046;-83
2023/05/28 05:02:19;;;;;;;13.60;4.93;;;;;;;;;;4959379;28;20050;-80
2023/05/28 05:04:45;;;;;;;12.90;5.43;;;;;;;;;;4960171;28;20035;-83
2023/05/28 05:07:13;;;;;;;12.02;5.32;;;;;;;;;;4970561;28;20497;-84
2023/05/28 05:09:39;;;;;;;11.95;5.32;;;;;;;;;;4974982;28;20488;-82
2023/05/28 05:12:06;;;;;;;10.02;4.93;;;;;;;;;;4955339;29;20503;-85
2023/05/28 05:14:32;;;;;;;12.20;4.97;;;;;;;;;;4939265;28;20030;-82
2023/05/28 05:16:58;;;;;;;10.60;4.75;;;;;;;;;;4974563;28;20041;-81
2023/05/28 05:19:25;;;;;;;11.07;5.05;;;;;;;;;;4958528;28;20125;-82
2023/05/28 05:21:52;;;;;;;10.90;4.28;;;;;;;;;;4939288;29;20113;-82
2023/05/28 05:24:17;;;;;;;10.82;4.32;;;;;;;;;;4939192;29;20074;-83
2023/05/28 05:26:43;;;;;;;12.57;4.60;;;;;;;;;;4955554;28;20039;-83
2023/05/28 05:29:09;;;;;;;11.45;4.65;;;;;;;;;;4939220;29;20031;-82
2023/05/28 05:31:35;;;;;;;11.95;5.43;;;;;;;;;;4939313;29;20059;-84
2023/05/28 05:34:01;;;;;;;10.13;4.63;;;;;;;;;;4966420;28;20041;-84
2023/05/28 05:36:45;;;;;;;11.45;4.75;;;;;;;;;;4958030;28;20452;-83
2023/05/28 05:39:29;;;;;;;13.07;5.60;;;;;;;;;;4966476;28;20031;-83
2023/05/28 05:42:13;;;;;;;13.35;5.25;;;;;;;;;;4969000;28;20074;-83
2023/05/28 05:44:42;;;;;;;10.27;4.53;;;;;;;;;;4957969;28;20058;-83
2023/05/28 05:47:08;;;;;;;11.10;4.80;;;;;;;;;;4956053;28;20543;-83
2023/05/28 05:49:33;;;;;;;12.27;4.82;;;;;;;;;;4939196;29;20047;-83
2023/05/28 05:51:59;;;;;;;9.52;4.53;;;;;;;;;;4923292;29;20115;-81
2023/05/28 05:54:26;;;;;;;10.80;4.35;;;;;;;;;;4923525;29;20035;-82
2023/05/28 05:56:52;;;;;;;10.57;4.70;;;;;;;;;;4987605;23;20049;-80
2023/05/28 05:59:18;;;;;;;9.70;4.32;;;;;;;;;;4996752;28;20471;-79
2023/05/28 06:01:44;;;;;;;12.27;4.63;;;;;;;;;;4992931;28;20036;-80
2023/05/28 06:04:09;;;;;;;12.80;5.20;;;;;;;;;;4997131;28;20394;-80
2023/05/28 06:06:47;;;;;;;14.63;5.53;;;;;;;;;;4996566;28;20026;-79
2023/05/28 06:09:12;;;;;;;12.73;4.10;;;;;;;;;;5013831;28;20018;-79
2023/05/28 06:11:44;;;;;;;9.43;3.90;;;;;;;;;;4996243;28;20434;-79
2023/05/28 06:14:10;;;;;;;11.93;4.85;;;;;;;;;;4980412;28;20029;-78
2023/05/28 06:16:36;;;;;;;9.27;4.50;;;;;;;;;;4996050;28;20025;-78
2023/05/28 06:19:01;;;;;;;11.98;4.47;;;;;;;;;;5007233;28;20386;-79
2023/05/28 06:21:28;;;;;;;13.25;4.50;;;;;;;;;;4984448;28;20026;-78
2023/05/28 06:23:53;;;;;;;10.57;4.95;;;;;;;;;;4990560;28;20103;-78
2023/05/28 06:26:20;;;;;;;10.88;5.32;;;;;;;;;;4993196;28;20030;-81
2023/05/28 06:28:45;;;;;;;10.10;4.82;;;;;;;;;;4990287;28;20026;-80
2023/05/28 06:31:11;;;;;;;10.25;4.28;;;;;;;;;;4984885;28;20502;-80
2023/05/28 06:33:37;;;;;;;13.90;4.60;;;;;;;;;;4967182;28;20114;-80
2023/05/28 06:36:03;;;;;;;11.48;4.45;;;;;;;;;;5009167;28;20546;-80
2023/05/28 06:38:28;;;;;;;8.70;4.35;;;;;;;;;;4993247;28;20556;-79
2023/05/28 06:40:54;;;;;;;8.77;4.30;;;;;;;;;;4988744;28;20073;-79
2023/05/28 06:43:21;;;;;;;12.43;4.25;;;;;;;;;;4986082;28;20529;-80
2023/05/28 06:46:21;;;;;;;10.32;3.85;;;;;;;;;;4963254;28;20101;-78
2023/05/28 06:48:46;;;;;;;14.32;4.97;;;;;;;;;;4990093;28;20065;-80
2023/05/28 06:51:12;;;;;;;9.30;4.03;;;;;;;;;;4984798;28;20438;-78
2023/05/28 06:53:38;;;;;;;7.47;3.50;;;;;;;;;;5000398;28;20030;-79
2023/05/28 06:56:05;;;;;;;8.57;3.65;;;;;;;;;;4976085;28;20095;-79
2023/05/28 06:58:50;;;;;;;10.43;3.95;;;;;;;;;;4999572;28;20038;-79
2023/05/28 07:01:24;;;;;;;12.00;4.00;;;;;;;;;;4985426;28;20074;-79
2023/05/28 07:04:06;;;;;;;10.13;4.13;;;;;;;;;;4992899;28;20030;-80
2023/05/28 07:06:41;;;;;;;10.40;4.20;;;;;;;;;;4979778;28;20034;-80
2023/05/28 07:09:12;;;;;;;10.18;3.80;;;;;;;;;;4980092;28;20062;-77
2023/05/28 07:11:38;;;;;;;13.52;4.43;;;;;;;;;;4979616;28;20475;-80
2023/05/28 07:14:04;;;;;;;13.13;3.85;;;;;;;;;;4995297;28;20128;-79
2023/05/28 07:16:30;;;;;;;9.57;4.07;;;;;;;;;;4979421;28;20030;-80
2023/05/28 07:18:56;;;;;;;10.90;4.18;;;;;;;;;;4995419;28;20041;-79
2023/05/28 07:21:23;;;;;;;11.02;3.50;;;;;;;;;;4985658;28;20034;-79
2023/05/28 07:23:49;;;;;;;13.45;4.75;;;;;;;;;;4975997;28;20498;-80
2023/05/28 07:26:15;;;;;;;18.10;4.82;;;;;;;;;;4995048;28;20042;-79
2023/05/28 07:28:40;;;;;;;13.23;3.90;;;;;;;;;;4988917;28;20033;-79
2023/05/28 07:31:07;;;;;;;11.27;3.88;;;;;;;;;;4971268;28;20434;-78
2023/05/28 07:33:32;;;;;;;9.45;4.03;;;;;;;;;;4996942;28;20045;-79
2023/05/28 07:35:58;;;;;;;15.45;5.00;;;;;;;;;;4966026;28;20491;-79
2023/05/28 07:38:24;;;;;;;10.48;3.70;;;;;;;;;;4993359;28;20038;-78
2023/05/28 07:40:53;;;;;;;11.45;3.85;;;;;;;;;;5006618;28;20072;-80
2023/05/28 07:43:24;;;;;;;11.18;4.07;;;;;;;;;;4982053;28;20047;-79
2023/05/28 07:45:53;;;;;;;10.07;4.13;;;;;;;;;;5007259;28;20034;-79
2023/05/28 07:48:18;;;;;;;10.82;4.00;;;;;;;;;;4996358;28;20065;-80
2023/05/28 07:50:51;;;;;;;12.57;3.90;;;;;;;;;;5003082;28;20034;-80
2023/05/28 07:53:33;;;;;;;10.77;3.83;;;;;;;;;;5004826;28;20117;-80
2023/05/28 07:56:00;;;;;;;10.52;4.10;;;;;;;;;;4975568;28;20053;-78
2023/05/28 07:58:26;;;;;;;10.55;3.55;;;;;;;;;;4978498;28;20494;-79
2023/05/28 08:00:52;;;;;;;9.38;4.05;;;;;;;;;;4987832;28;20049;-79
2023/05/28 08:03:17;;;;;;;10.05;4.45;;;;;;;;;;4987424;28;20497;-79
2023/05/28 08:05:46;;;;;;;;;;;;;;;;;;4995284;28;20130;-79
2023/05/28 08:08:12;;;;;;;8.25;3.20;;;;;;;;;;4999467;28;19909;-79
2023/05/28 08:10:38;;;;;;;6.28;3.35;;;;;;;;;;4983274;28;20041;-78
2023/05/28 08:13:04;;;;;;;8.45;3.10;;;;;;;;;;4998786;28;20044;-79
2023/05/28 08:15:30;;;;;;;8.82;3.30;;;;;;;;;;4982124;28;20510;-78
2023/05/28 08:17:56;;;;;;;11.30;3.28;;;;;;;;;;4982380;28;20049;-81
2023/05/28 08:20:23;;;;;;;10.00;3.47;;;;;;;;;;4977307;28;20054;-79
2023/05/28 08:22:55;;;;;;;10.05;3.53;;;;;;;;;;4964803;28;20032;-77
2023/05/28 08:25:21;;;;;;;7.68;2.58;;;;;;;;;;4992723;28;20030;-78
2023/05/28 08:27:50;;;;;;;8.25;2.75;;;;;;;;;;4993570;28;20125;-79
2023/05/28 08:30:16;;;;;;;9.23;3.40;;;;;;;;;;4992685;28;20037;-78
2023/05/28 08:32:55;;;;;;;6.80;3.33;;;;;;;;;;4989194;28;20266;-77
2023/05/28 08:35:22;;;;;;;8.30;3.05;;;;;;;;;;4985172;28;20034;-79
2023/05/28 08:37:49;;;;;;;10.68;3.67;;;;;;;;;;4949656;28;20556;-80
2023/05/28 08:40:23;;;;;;;8.18;3.10;;;;;;;;;;4962200;28;20042;-78
2023/05/28 08:42:50;;;;;;;6.22;2.75;;;;;;;;;;4975833;28;20030;-78
2023/05/28 08:45:16;;;;;;;8.43;2.47;;;;;;;;;;4971753;28;20030;-80
2023/05/28 08:47:45;;;;;;;5.72;2.85;;;;;;;;;;4984932;28;20042;-79
2023/05/28 08:50:18;;;;;;;8.65;2.72;;;;;;;;;;4991702;28;20134;-79
2023/05/28 08:52:59;;;;;;;8.68;3.15;;;;;;;;;;4969646;28;20065;-78
2023/05/28 08:55:25;;;;;;;9.40;3.10;;;;;;;;;;5005132;28;20046;-77
2023/05/28 08:57:59;;;;;;;9.18;3.35;;;;;;;;;;4996639;28;20165;-79
2023/05/28 09:00:25;;;;;;;10.48;3.17;;;;;;;;;;4974391;28;20117;-78
2023/05/28 09:03:20;;;;;;;8.88;3.00;;;;;;;;;;4955640;28;20036;-78
2023/05/28 09:05:46;;;;;;;8.35;2.65;;;;;;;;;;4964788;28;20050;-77
2023/05/28 09:08:12;;;;;;;10.38;3.05;;;;;;;;;;4991090;28;20467;-78
2023/05/28 09:10:39;;;;;;;8.63;2.80;;;;;;;;;;5015281;28;20026;-78
2023/05/28 09:13:04;;;;;;;6.85;2.75;;;;;;;;;;4969444;28;20041;-78
2023/05/28 09:15:31;;;;;;;6.38;3.03;;;;;;;;;;4988902;28;20105;-75
2023/05/28 09:18:01;;;;;;;6.50;2.95;;;;;;;;;;4973476;28;20057;-78
2023/05/28 09:20:28;;;;;;;11.02;3.08;;;;;;;;;;4977491;28;20106;-76
2023/05/28 09:23:00;;;;;;;10.07;2.97;;;;;;;;;;4994940;28;20105;-77
2023/05/28 09:25:41;;;;;;;9.88;2.80;;;;;;;;;;4963535;28;20034;-77
2023/05/28 09:28:13;;;;;;;6.25;2.30;;;;;;;;;;4977406;28;20026;-77
2023/05/28 09:30:39;;;;;;;8.05;2.72;;;;;;;;;;4995224;28;20089;-78
2023/05/28 09:33:06;;;;;;;7.05;2.60;;;;;;;;;;4974337;28;20092;-77
2023/05/28 09:35:33;;;;;;;11.55;2.33;;;;;;;;;;4999752;28;20083;-78
2023/05/28 09:38:02;;;;;;;8.23;2.65;;;;;;;;;;4980073;28;20040;-78
2023/05/28 09:40:28;;;;;;;9.02;2.75;;;;;;;;;;4983615;28;20460;-78
2023/05/28 09:42:54;;;;;;;7.28;2.40;;;;;;;;;;4993474;28;20065;-78
2023/05/28 09:45:24;;;;;;;7.25;2.80;;;;;;;;;;4980998;28;20057;-76
2023/05/28 09:47:49;;;;;;;7.82;2.50;;;;;;;;;;4988643;28;20022;-78
2023/05/28 09:50:15;;;;;;;5.93;2.45;;;;;;;;;;5004912;28;20512;-78
2023/05/28 09:52:45;;;;;;;4.35;2.22;;;;;;;;;;4981471;28;20121;-78
2023/05/28 09:55:17;;;;;;;6.93;3.58;;;;;;;;;;4992978;28;20033;-79
2023/05/28 09:57:51;;;;;;;8.05;3.58;;;;;;;;;;4967891;28;20033;-78
2023/05/28 10:00:26;;;;;;;8.95;3.00;;;;;;;;;;4996660;28;20034;-76
2023/05/28 10:03:02;;;;;;;7.63;2.65;;;;;;;;;;4965053;28;20026;-76
2023/05/28 10:05:31;;;;;;;8.75;2.60;;;;;;;;;;4994947;28;20042;-77
2023/05/28 10:07:58;;;;;;;9.52;2.67;;;;;;;;;;4985819;28;20049;-77
2023/05/28 10:10:25;;;;;;;8.90;2.92;;;;;;;;;;4960561;28;20108;-76
2023/05/28 10:12:53;;;;;;;6.43;2.42;;;;;;;;;;5010107;28;20070;-78
2023/05/28 10:15:19;;;;;;;6.83;2.30;;;;;;;;;;4992595;28;20029;-77
2023/05/28 10:17:44;;;;;;;7.05;2.38;;;;;;;;;;5013857;28;20263;-78
2023/05/28 10:20:11;;;;;;;13.52;3.05;;;;;;;;;;4995273;28;20034;-77
2023/05/28 10:22:39;;;;;;;7.72;3.03;;;;;;;;;;4996209;28;20497;-76
2023/05/28 10:25:07;;;;;;;5.28;2.63;;;;;;;;;;4997220;28;20041;-77
2023/05/28 10:27:34;;;;;;;7.20;2.45;;;;;;;;;;4997144;28;20025;-79
2023/05/28 10:30:03;;;;;;;6.00;2.85;;;;;;;;;;4999769;28;20099;-78
2023/05/28 10:32:37;;;;;;;7.45;2.88;;;;;;;;;;4983866;28;20026;-78
2023/05/28 10:35:03;;;;;;;7.00;2.72;;;;;;;;;;5000087;28;20032;-79
2023/05/28 10:37:28;;;;;;;7.80;2.70;;;;;;;;;;5016354;28;20030;-77
2023/05/28 10:39:54;;;;;;;7.43;2.20;;;;;;;;;;5017481;28;20045;-78
2023/05/28 10:42:22;;;;;;;12.43;2.78;;;;;;;;;;5031423;28;20045;-77
2023/05/28 10:45:00;;;;;;;5.95;2.70;;;;;;;;;;5032453;28;20034;-79
2023/05/28 10:47:32;;;;;;;7.72;2.30;;;;;;;;;;5010257;28;20026;-77
2023/05/28 10:49:59;;;;;;;7.22;2.35;;;;;;;;;;4996255;28;20025;-79
2023/05/28 10:52:25;;;;;;;5.32;2.20;;;;;;;;;;4961225;28;20061;-77
2023/05/28 10:54:52;;;;;;;8.82;3.90;;;;;;;;;;4963410;28;20407;-77
2023/05/28 10:57:21;;;;;;;12.32;3.00;;;;;;;;;;4979433;28;20045;-78
2023/05/28 10:59:50;;;;;;;5.57;2.38;;;;;;;;;;5013027;28;20040;-78
2023/05/28 11:02:22;;;;;;;7.80;2.40;;;;;;;;;;4994918;28;20096;-77
2023/05/28 11:04:53;;;;;;;5.55;2.20;;;;;;;;;;4979199;28;20037;-77
2023/05/28 11:07:20;;;;;;;7.47;2.45;;;;;;;;;;5011813;28;20032;-77
2023/05/28 11:09:51;;;;;;;4.88;2.42;;;;;;;;;;4985905;28;20501;-77
2023/05/28 11:12:19;;;;;;;7.95;3.20;;;;;;;;;;4999870;28;20495;-77
2023/05/28 11:14:44;;;;;;;6.57;2.63;;;;;;;;;;4987500;28;20034;-79
2023/05/28 11:17:10;;;;;;;6.50;2.38;;;;;;;;;;5011993;28;20149;-77
2023/05/28 11:19:40;;;;;;;5.93;2.40;;;;;;;;;;4978726;28;20034;-79
2023/05/28 11:22:06;;;;;;;8.02;2.58;;;;;;;;;;5004913;28;20113;-78
2023/05/28 11:24:47;;;;;;;6.00;2.58;;;;;;;;;;4958341;28;20038;-78
2023/05/28 11:27:13;;;;;;;4.70;2.20;;;;;;;;;;4994841;28;20018;-78
2023/05/28 11:29:39;;;;;;;6.53;2.42;;;;;;;;;;5008641;28;20030;-79
2023/05/28 11:32:04;;;;;;;5.68;2.45;;;;;;;;;;4992263;28;20499;-79
2023/05/28 11:34:30;;;;;;;8.45;2.45;;;;;;;;;;4985859;28;20482;-77
2023/05/28 11:36:56;;;;;;;4.85;2.38;;;;;;;;;;4980831;28;20034;-77
2023/05/28 11:39:21;;;;;;;9.38;2.85;;;;;;;;;;4991222;28;20030;-77
2023/05/28 11:41:48;;;;;;;6.03;2.22;;;;;;;;;;4979780;28;20489;-78
2023/05/28 11:44:23;;;;;;;5.75;2.40;;;;;;;;;;5003699;28;20049;-79
2023/05/28 11:46:55;;;;;;;6.57;2.35;;;;;;;;;;5005310;28;20084;-78
2023/05/28 11:49:21;;;;;;;8.07;2.75;;;;;;;;;;4996496;28;20156;-78
2023/05/28 11:51:51;;;;;;;6.95;2.47;;;;;;;;;;5010763;28;20018;-77
2023/05/28 11:54:16;;;;;;;6.72;2.75;;;;;;;;;;5016073;28;20097;-79
2023/05/28 11:56:42;;;;;;;5.20;2.40;;;;;;;;;;5039014;22;20068;31
2023/05/28 11:59:09;;;;;;;12.48;2.67;;;;;;;;;;4990706;28;20096;-82
2023/05/28 12:01:35;;;;;;;5.30;2.13;;;;;;;;;;4993626;28;20042;-82
2023/05/28 12:04:08;;;;;;;6.28;2.95;;;;;;;;;;4981517;28;20526;-82
2023/05/28 12:06:35;;;;;;;7.38;2.85;;;;;;;;;;4970797;28;20027;-81
2023/05/28 12:09:07;;;;;;;7.20;2.60;;;;;;;;;;4987486;28;20031;-82
2023/05/28 12:11:33;;;;;;;9.85;3.80;;;;;;;;;;4984780;28;20038;-81
2023/05/28 12:14:07;;;;;;;5.50;2.50;;;;;;;;;;4982274;28;20439;-81
2023/05/28 12:16:41;;;;;;;7.28;2.40;;;;;;;;;;4980686;28;20034;-80
2023/05/28 12:19:13;;;;;;;6.45;2.05;;;;;;;;;;4975073;28;20109;-82
2023/05/28 12:21:39;;;;;;;7.07;2.58;;;;;;;;;;4974333;28;20026;-83
2023/05/28 12:24:11;;;;;;;7.85;3.03;;;;;;;;;;4957078;28;20031;-82
2023/05/28 12:26:37;;;;;;;6.10;2.60;;;;;;;;;;4956349;28;20031;-83
2023/05/28 12:29:02;;;;;;;4.55;2.13;;;;;;;;;;4973607;28;20042;-83
2023/05/28 12:31:30;;;;;;;6.80;2.50;;;;;;;;;;4973390;28;20447;-83
2023/05/28 12:33:56;;;;;;;6.72;2.50;;;;;;;;;;4957559;28;20045;-83
2023/05/28 12:36:29;;;;;;;6.40;2.65;;;;;;;;;;4975546;28;20119;-83
2023/05/28 12:38:55;;;;;;;4.32;2.38;;;;;;;;;;4961849;28;20287;-83
2023/05/28 12:41:21;;;;;;;8.25;3.60;;;;;;;;;;4935693;28;20122;-82
2023/05/28 12:43:46;;;;;;;6.60;2.38;;;;;;;;;;4958291;28;20077;-84
2023/05/28 12:46:12;;;;;;;5.70;2.60;;;;;;;;;;4959029;28;20106;-82
2023/05/28 12:48:38;;;;;;;7.18;2.40;;;;;;;;;;4956290;29;20131;-84
2023/05/28 12:51:06;;;;;;;7.15;2.58;;;;;;;;;;4966146;28;20058;-83
2023/05/28 12:53:32;;;;;;;5.53;2.08;;;;;;;;;;4969205;28;20536;-82
2023/05/28 12:55:57;;;;;;;5.35;2.60;;;;;;;;;;4976614;28;20146;-84
2023/05/28 12:58:23;;;;;;;7.38;2.95;;;;;;;;;;4959376;28;20041;-83
2023/05/28 13:00:49;;;;;;;5.35;2.28;;;;;;;;;;4976316;28;20037;-85
2023/05/28 13:03:15;;;;;;;9.18;3.10;;;;;;;;;;4975767;28;20027;-84
2023/05/28 13:05:41;;;;;;;4.63;2.22;;;;;;;;;;4942599;28;20038;-85
2023/05/28 13:08:06;;;;;;;5.82;2.20;;;;;;;;;;4958856;28;20037;-83
2023/05/28 13:10:32;;;;;;;7.53;2.63;;;;;;;;;;4959064;28;20439;-84
2023/05/28 13:12:57;;;;;;;4.75;2.50;;;;;;;;;;4959087;28;20399;-84
2023/05/28 13:15:23;;;;;;;5.22;2.15;;;;;;;;;;4975137;28;20037;-84
2023/05/28 13:17:48;;;;;;;6.55;2.58;;;;;;;;;;4959623;28;20035;-83
2023/05/28 13:20:14;;;;;;;8.85;2.30;;;;;;;;;;4959267;28;20128;-84
2023/05/28 13:22:40;;;;;;;5.50;2.58;;;;;;;;;;4943828;28;20472;-83
2023/05/28 13:25:06;;;;;;;6.80;2.38;;;;;;;;;;4964834;28;20030;-84
2023/05/28 13:27:32;;;;;;;8.15;2.92;;;;;;;;;;4969171;28;20035;-83
2023/05/28 13:29:58;;;;;;;6.70;2.70;;;;;;;;;;4973620;28;20057;-82
2023/05/28 13:32:24;;;;;;;6.22;3.00;;;;;;;;;;4972231;29;20031;-83
2023/05/28 13:34:50;;;;;;;5.20;2.30;;;;;;;;;;4978312;28;20039;-82
2023/05/28 13:37:16;;;;;;;5.32;2.53;;;;;;;;;;4975259;29;20087;-84
2023/05/28 13:39:41;;;;;;;5.75;2.63;;;;;;;;;;4971069;29;20035;-84
2023/05/28 13:42:07;;;;;;;6.28;3.08;;;;;;;;;;4944722;29;20519;-84
2023/05/28 13:44:33;;;;;;;7.13;2.70;;;;;;;;;;4942780;29;20031;-83
2023/05/28 13:46:59;;;;;;;5.85;2.65;;;;;;;;;;4956134;29;20035;-82
2023/05/28 13:49:25;;;;;;;4.38;2.25;;;;;;;;;;4956203;29;20451;-83
2023/05/28 13:51:51;;;;;;;6.38;2.45;;;;;;;;;;4968369;28;20070;-82
2023/05/28 13:54:17;;;;;;;4.68;2.40;;;;;;;;;;4975498;28;20555;-84
2023/05/28 13:56:42;;;;;;;4.95;2.20;;;;;;;;;;4925879;28;20143;-82
2023/05/28 13:59:08;;;;;;;4.85;2.30;;;;;;;;;;4942233;28;20019;-84
2023/05/28 14:01:34;;;;;;;4.47;2.35;;;;;;;;;;4941899;28;20042;-85
2023/05/28 14:04:00;;;;;;;5.70;2.40;;;;;;;;;;4942130;28;20026;-83
2023/05/28 14:06:25;;;;;;;6.20;2.47;;;;;;;;;;4975380;28;20511;-83
2023/05/28 14:08:51;;;;;;;7.22;2.97;;;;;;;;;;4954693;28;20477;-82
2023/05/28 14:11:17;;;;;;;6.40;2.30;;;;;;;;;;4957142;28;20026;-84
2023/05/28 14:13:43;;;;;;;3.53;1.88;;;;;;;;;;4974901;28;20505;-83
2023/05/28 14:16:09;;;;;;;8.60;2.88;;;;;;;;;;4976028;28;20034;-82
2023/05/28 14:18:34;;;;;;;12.05;2.67;;;;;;;;;;4943053;28;20125;-84
2023/05/28 14:21:00;;;;;;;6.60;2.47;;;;;;;;;;4941247;28;20062;-85
2023/05/28 14:23:26;;;;;;;10.23;2.15;;;;;;;;;;4941293;28;20035;-83
2023/05/28 14:25:51;;;;;;;7.22;2.22;;;;;;;;;;4974823;28;20026;-83
2023/05/28 14:28:17;;;;;;;8.27;2.67;;;;;;;;;;4940921;28;20093;-84
2023/05/28 14:30:43;;;;;;;6.72;2.10;;;;;;;;;;4956939;28;20403;-82
2023/05/28 14:33:09;;;;;;;6.90;2.60;;;;;;;;;;4974344;28;20478;-84
2023/05/28 14:35:34;;;;;;;3.75;2.05;;;;;;;;;;4957690;28;20062;-82
2023/05/28 14:38:00;;;;;;;6.28;2.75;;;;;;;;;;4956996;28;20054;-84
2023/05/28 14:40:25;;;;;;;5.30;2.15;;;;;;;;;;4937835;29;20404;-83
2023/05/28 14:42:51;;;;;;;7.85;2.45;;;;;;;;;;4944948;28;20125;-84